Time;durP1;ratioP1;P1;durP2;ratioP2;P2;SDS_P1;SDS_P2;PMS_P1;PMS_P2;Temp;Humidity;BMP_temperature;BMP_pressure;BME280_temperature;BME280_humidity;BME280_pressure;Samples;Min_cycle;Max_cycle;Signal;HPM_P1;HPM_P2
2022/05/09 00:08:03;;;;;;;2.13;1.50;;;;;;;9.93;66.10;101683.30;712953;1174;114584;-75
2022/05/09 00:23:05;;;;;;;3.63;2.20;;;;;;;9.77;65.44;101689.50;713165;1174;113870;-75
2022/05/09 00:38:08;;;;;;;4.40;2.30;;;;;;;9.50;65.07;101699.89;713125;1174;114268;-75
2022/05/09 00:53:12;;;;;;;4.15;2.18;;;;;;;9.15;66.29;101690.63;713131;1203;24928;-76
2022/05/09 01:08:14;;;;;;;9.57;3.73;;;;;;;9.01;66.49;101693.22;713433;1202;23192;-76
2022/05/09 01:23:17;;;;;;;7.53;2.90;;;;;;;8.78;68.00;101697.20;713195;1202;25962;-77
2022/05/09 01:38:40;;;;;;;5.23;2.40;;;;;;;8.52;68.13;101717.00;713227;1202;23298;-76
2022/05/09 01:53:49;;;;;;;5.13;1.80;;;;;;;8.29;68.79;101726.95;713369;1200;26169;-76
2022/05/09 02:08:51;;;;;;;3.73;1.95;;;;;;;8.18;69.06;101744.98;713126;1202;27339;-76
2022/05/09 02:23:54;;;;;;;4.70;1.70;;;;;;;7.85;69.11;101740.66;713272;1202;24747;-77
2022/05/09 02:38:56;;;;;;;2.63;1.70;;;;;;;7.88;69.23;101743.09;713249;1202;23157;-76
2022/05/09 02:53:58;;;;;;;8.27;3.77;;;;;;;7.77;68.48;101761.96;713355;1202;23154;-77
2022/05/09 03:09:01;;;;;;;5.25;2.70;;;;;;;7.66;68.21;101786.03;717137;1165;23140;-80
2022/05/09 03:24:03;;;;;;;5.20;2.38;;;;;;;7.48;68.68;101793.91;713241;1205;23140;-79
2022/05/09 03:39:07;;;;;;;7.13;2.83;;;;;;;7.52;69.24;101806.80;713120;1200;23165;-79
2022/05/09 03:54:09;;;;;;;2.75;2.10;;;;;;;7.59;69.91;101819.47;713184;1205;26315;-77
2022/05/09 04:09:11;;;;;;;8.13;3.15;;;;;;;7.99;69.42;101820.00;713413;1203;23146;-76
2022/05/09 04:24:14;;;;;;;4.53;2.48;;;;;;;8.33;69.08;101827.83;713447;1203;23275;-76
2022/05/09 04:39:16;;;;;;;5.75;3.10;;;;;;;8.85;68.86;101839.00;713736;1203;23146;-76
2022/05/09 04:54:18;;;;;;;6.17;1.73;;;;;;;9.43;68.92;101851.36;713629;1204;24604;-75
2022/05/09 05:09:20;;;;;;;4.88;2.20;;;;;;;10.08;68.59;101868.51;713509;1203;23143;-77
2022/05/09 05:24:23;;;;;;;11.75;5.58;;;;;;;10.46;66.48;101883.67;713134;1204;23169;-77
2022/05/09 05:39:25;;;;;;;3.67;2.10;;;;;;;11.03;65.42;101896.78;713353;1205;23150;-77
2022/05/09 05:54:28;;;;;;;4.05;2.23;;;;;;;11.40;64.12;101895.23;713410;1202;23151;-80
2022/05/09 06:09:30;;;;;;;10.03;2.67;;;;;;;11.86;62.64;101907.06;713453;1200;23145;-80
2022/05/09 06:24:32;;;;;;;12.17;3.07;;;;;;;12.56;61.79;101904.95;713466;1202;23147;-79
2022/05/09 06:39:35;;;;;;;3.83;1.98;;;;;;;13.11;60.40;101923.85;713543;1202;23148;-77
2022/05/09 06:54:38;;;;;;;2.48;1.35;;;;;;;13.87;59.29;101923.55;713921;1200;26791;-77
2022/05/09 07:09:40;;;;;;;4.40;1.80;;;;;;;14.96;57.22;101936.15;713912;1203;23137;-79
2022/05/09 07:24:43;;;;;;;3.13;1.35;;;;;;;15.82;55.53;101940.64;713442;1200;26038;-81
2022/05/09 07:39:45;;;;;;;3.48;1.25;;;;;;;16.65;54.25;101937.97;713605;1200;23170;-80
2022/05/09 07:54:48;;;;;;;4.40;1.45;;;;;;;17.90;52.84;101940.00;713361;1200;26038;-82
2022/05/09 08:09:51;;;;;;;3.13;1.63;;;;;;;18.87;51.99;101942.41;714240;1204;23144;-82
2022/05/09 08:24:53;;;;;;;2.95;1.30;;;;;;;19.51;50.47;101934.41;714326;1205;23162;-83
2022/05/09 08:39:55;;;;;;;3.73;1.43;;;;;;;20.21;50.04;101936.22;714284;1205;26179;-77
2022/05/09 08:54:58;;;;;;;2.00;1.43;;;;;;;20.68;49.45;101924.22;713443;1205;23167;-83
2022/05/09 09:10:07;;;;;;;10.25;2.05;;;;;;;21.10;48.37;101921.52;713452;1204;25981;-83
2022/05/09 09:25:25;;;;;;;2.50;1.53;;;;;;;21.56;47.47;101920.20;713303;1205;26172;-83
2022/05/09 09:40:27;;;;;;;2.38;1.23;;;;;;;21.94;46.57;101923.97;713579;1205;26179;-86
2022/05/09 09:55:33;;;;;;;4.55;1.15;;;;;;;22.44;46.10;101918.50;714669;1205;23151;-87
2022/05/09 10:10:54;;;;;;;5.03;1.57;;;;;;;22.83;44.68;101911.42;716121;1197;23217;-86
2022/05/09 10:26:17;;;;;;;3.60;1.23;;;;;;;23.36;43.39;101887.45;716769;1200;26301;-86
2022/05/09 10:41:31;;;;;;;1.70;1.10;;;;;;;23.98;42.35;101880.14;713777;1205;27242;-84
2022/05/09 10:56:50;;;;;;;2.63;0.88;;;;;;;24.08;41.82;101876.19;714043;1200;23188;-86
2022/05/09 11:12:02;;;;;;;4.60;1.17;;;;;;;23.47;41.29;101864.78;713771;1206;23147;-73
2022/05/09 11:27:26;;;;;;;1.67;1.10;;;;;;;24.47;40.32;101833.93;713858;1204;23147;-72
2022/05/09 11:43:27;;;;;;;1.30;0.95;;;;;;;24.50;39.69;101833.54;713823;1200;26086;-74
2022/05/09 11:58:31;;;;;;;2.98;1.13;;;;;;;24.20;39.71;101806.81;714429;1172;114004;-76
2022/05/09 12:13:43;;;;;;;2.20;1.18;;;;;;;24.71;39.04;101811.28;714967;1174;114083;-76
2022/05/09 12:28:46;;;;;;;6.60;3.98;;;;;;;25.45;39.27;101797.63;714192;1174;114524;-77
2022/05/09 12:43:54;;;;;;;3.25;1.40;;;;;;;25.37;38.55;101777.94;713236;1174;114166;-78
2022/05/09 12:59:16;;;;;;;7.20;1.40;;;;;;;25.97;37.66;101758.56;713147;1174;115613;-82
2022/05/09 13:14:26;;;;;;;5.65;1.13;;;;;;;26.85;37.09;101748.80;713495;1174;114624;-81
2022/05/09 13:29:32;;;;;;;5.25;3.30;;;;;;;25.43;36.35;101725.28;713892;1174;115689;-78
2022/05/09 13:44:37;;;;;;;3.00;1.15;;;;;;;25.95;36.18;101714.94;714257;1174;114561;-77
2022/05/09 13:59:40;;;;;;;2.20;1.17;;;;;;;25.50;35.07;101693.92;714061;1174;115431;-78
2022/05/09 14:14:48;;;;;;;2.90;1.20;;;;;;;25.67;35.05;101686.34;713786;1174;115558;-76
2022/05/09 14:29:56;;;;;;;2.20;1.20;;;;;;;32.72;32.92;101681.86;713583;1174;115611;-75
2022/05/09 14:45:02;;;;;;;4.15;1.33;;;;;;;27.48;33.15;101658.54;713600;1174;115371;-76
2022/05/09 15:00:09;;;;;;;2.47;1.30;;;;;;;25.49;34.10;101640.41;713157;1174;115414;-75
2022/05/09 15:15:15;;;;;;;4.93;1.15;;;;;;;24.84;35.22;101621.93;713400;1174;115805;-73
2022/05/09 15:30:19;;;;;;;4.13;2.17;;;;;;;24.27;35.87;101608.52;713346;1174;115479;-75
2022/05/09 15:45:23;;;;;;;3.33;1.30;;;;;;;24.20;35.18;101599.58;713388;1174;115826;-77
2022/05/09 16:00:29;;;;;;;3.87;1.13;;;;;;;23.62;35.32;101591.61;713676;1174;115660;-75
2022/05/09 16:15:32;;;;;;;3.28;1.28;;;;;;;23.26;35.87;101579.89;713481;1174;115532;-75
2022/05/09 16:30:36;;;;;;;2.23;1.37;;;;;;;22.34;36.29;101579.19;713663;1174;115277;-78
2022/05/09 16:45:39;;;;;;;4.58;1.30;;;;;;;22.15;36.55;101558.36;713738;1174;115095;-76
2022/05/09 17:00:43;;;;;;;5.10;2.90;;;;;;;21.81;36.62;101562.30;713443;1174;115405;-74
2022/05/09 17:15:46;;;;;;;9.57;4.97;;;;;;;21.29;36.53;101572.61;713649;1175;115098;-75
2022/05/09 17:30:50;;;;;;;18.07;8.47;;;;;;;20.60;37.23;101573.16;713434;1176;114705;-75
2022/05/09 17:45:53;;;;;;;8.90;3.70;;;;;;;19.93;37.97;101568.92;713629;1174;114566;-76
2022/05/09 18:00:56;;;;;;;5.50;3.35;;;;;;;18.78;38.77;101574.68;713629;1174;115079;-72
2022/05/09 18:15:59;;;;;;;60.78;29.20;;;;;;;17.79;39.37;101585.36;713250;1174;115426;-71
2022/05/09 18:31:02;;;;;;;76.00;48.57;;;;;;;17.03;40.22;101599.75;713576;1174;116093;-72
2022/05/09 18:46:06;;;;;;;11.18;7.23;;;;;;;16.30;41.40;101608.27;713396;1174;115614;-72
2022/05/09 19:01:11;;;;;;;28.40;18.20;;;;;;;15.77;42.01;101612.09;713213;1175;114324;-72
2022/05/09 19:16:23;;;;;;;22.37;10.67;;;;;;;15.19;42.90;101604.84;713439;1174;115085;-81
2022/05/09 19:31:36;;;;;;;18.63;8.60;;;;;;;14.72;42.98;101597.41;714025;1175;114475;-72
2022/05/09 19:47:13;;;;;;;9.57;4.77;;;;;;;14.21;43.39;101598.98;713765;1174;114888;-74
2022/05/09 20:02:23;;;;;;;56.80;23.33;;;;;;;13.54;46.00;101614.04;713431;1174;115723;-74
2022/05/09 20:17:26;;;;;;;29.13;13.10;;;;;;;12.82;46.81;101611.61;713355;1174;115887;-74
2022/05/09 20:32:31;;;;;;;16.33;7.63;;;;;;;12.38;47.07;101597.41;713206;1174;115858;-72
2022/05/09 20:47:35;;;;;;;61.45;24.18;;;;;;;11.93;48.62;101603.30;713321;1174;114235;-73
2022/05/09 21:02:38;;;;;;;53.57;21.07;;;;;;;11.41;49.56;101605.23;713310;1175;115220;-73
2022/05/09 21:17:41;;;;;;;62.80;22.30;;;;;;;10.89;51.61;101614.97;713270;1174;115853;-73
2022/05/09 21:32:44;;;;;;;42.83;18.03;;;;;;;10.48;52.62;101616.81;713062;1174;115352;-74
2022/05/09 21:47:47;;;;;;;32.45;14.28;;;;;;;10.14;52.78;101610.30;713484;1174;115683;-73
2022/05/09 22:02:49;;;;;;;28.70;10.80;;;;;;;9.88;53.38;101614.60;713169;1174;115821;-72
2022/05/09 22:17:52;;;;;;;31.53;10.43;;;;;;;9.54;54.83;101606.25;713511;1174;115035;-72
2022/05/09 22:32:55;;;;;;;33.55;11.30;;;;;;;9.28;54.01;101603.49;713059;1177;115805;-72
2022/05/09 22:48:11;;;;;;;39.73;13.90;;;;;;;9.04;55.21;101606.67;713527;1174;114550;-72
2022/05/09 23:03:13;;;;;;;41.60;13.58;;;;;;;8.89;55.51;101594.50;713246;1174;115346;-73
2022/05/09 23:18:15;;;;;;;40.25;12.55;;;;;;;8.70;56.13;101587.75;712928;1174;115743;-72
2022/05/09 23:33:27;;;;;;;14.57;5.50;;;;;;;8.99;55.21;101569.46;712934;1174;115713;-73
2022/05/09 23:48:30;;;;;;;6.38;3.45;;;;;;;9.40;53.00;101562.60;713267;1174;114823;-73
